createdAt,value
2018-11-26T00:00:18.546Z,95.30
2018-11-26T00:02:47.650Z,95.20
2018-11-26T00:05:16.625Z,95.10
2018-11-26T00:07:44.805Z,95.10
2018-11-26T00:11:25.409Z,94.90
2018-11-26T00:13:53.539Z,94.80
2018-11-26T00:16:22.006Z,95.00
2018-11-26T00:18:50.388Z,94.80
2018-11-26T00:21:18.759Z,94.70
2018-11-26T00:23:47.552Z,94.60
2018-11-26T00:26:15.765Z,94.50
2018-11-26T00:28:43.887Z,94.50
2018-11-26T00:31:12.016Z,94.50
2018-11-26T00:33:40.273Z,94.10
2018-11-26T00:36:08.399Z,94.10
2018-11-26T00:38:37.100Z,93.60
2018-11-26T00:41:05.913Z,93.10
2018-11-26T00:43:34.318Z,92.30
2018-11-26T00:46:03.096Z,92.00
2018-11-26T00:48:32.376Z,91.70
2018-11-26T00:51:00.770Z,91.50
2018-11-26T00:53:29.995Z,91.50
2018-11-26T00:55:58.349Z,92.20
2018-11-26T00:58:26.771Z,92.50
2018-11-26T01:00:54.974Z,92.60
2018-11-26T01:03:23.695Z,92.50
2018-11-26T01:05:51.834Z,92.60
2018-11-26T01:08:20.875Z,92.70
2018-11-26T01:10:49.168Z,92.70
2018-11-26T01:13:17.444Z,92.70
2018-11-26T01:15:46.080Z,92.80
2018-11-26T01:18:14.454Z,93.00
2018-11-26T01:20:42.686Z,92.80
2018-11-26T01:23:11.410Z,92.80
2018-11-26T01:25:39.780Z,93.00
2018-11-26T01:28:09.148Z,93.10
2018-11-26T01:30:38.616Z,93.00
2018-11-26T01:33:07.824Z,93.10
2018-11-26T01:35:37.014Z,93.10
2018-11-26T01:38:05.230Z,92.90
2018-11-26T01:40:39.122Z,92.30
2018-11-26T01:43:07.392Z,92.00
2018-11-26T01:45:35.621Z,92.20
2018-11-26T01:48:04.184Z,92.10
2018-11-26T01:50:32.447Z,92.00
2018-11-26T01:53:00.805Z,92.20
2018-11-26T01:55:29.050Z,92.40
2018-11-26T01:57:57.327Z,92.60
2018-11-26T02:00:29.866Z,92.50
2018-11-26T02:02:58.157Z,92.50
2018-11-26T02:05:26.288Z,92.10
2018-11-26T02:07:54.509Z,92.40
2018-11-26T02:10:22.785Z,92.50
2018-11-26T02:12:50.916Z,92.10
2018-11-26T02:15:41.604Z,92.30
2018-11-26T02:18:10.289Z,92.20
2018-11-26T02:20:38.505Z,92.40
2018-11-26T02:23:07.384Z,92.50
2018-11-26T02:25:35.857Z,92.40
2018-11-26T02:28:03.993Z,92.20
2018-11-26T02:30:32.306Z,92.30
2018-11-26T02:33:01.796Z,92.10
2018-11-26T02:35:30.075Z,92.00
2018-11-26T02:37:58.319Z,92.40
2018-11-26T02:40:28.970Z,92.20
2018-11-26T02:42:57.831Z,92.50
2018-11-26T02:45:26.155Z,92.40
2018-11-26T02:47:54.328Z,92.30
2018-11-26T02:50:23.185Z,92.60
2018-11-26T02:52:51.502Z,92.70
2018-11-26T02:55:20.761Z,92.50
2018-11-26T02:57:48.940Z,92.70
2018-11-26T03:00:29.432Z,93.00
2018-11-26T03:02:58.400Z,93.30
2018-11-26T03:05:29.624Z,93.10
2018-11-26T03:07:57.852Z,93.20
2018-11-26T03:10:26.046Z,93.20
2018-11-26T03:12:54.340Z,93.40
2018-11-26T03:15:23.300Z,93.30
2018-11-26T03:17:51.513Z,93.10
2018-11-26T03:20:19.634Z,93.20
2018-11-26T03:22:48.839Z,93.40
2018-11-26T03:25:17.133Z,93.50
2018-11-26T03:27:45.253Z,93.50
2018-11-26T03:30:19.265Z,93.20
2018-11-26T03:32:47.409Z,93.20
2018-11-26T03:35:15.892Z,93.10
2018-11-26T03:37:44.251Z,92.90
2018-11-26T03:40:13.247Z,93.00
2018-11-26T03:42:41.769Z,93.00
2018-11-26T03:45:13.928Z,92.50
2018-11-26T03:47:42.400Z,92.30
2018-11-26T03:50:11.523Z,92.30
2018-11-26T03:52:39.763Z,92.20
2018-11-26T03:55:09.652Z,92.00
2018-11-26T03:57:37.829Z,92.10
2018-11-26T04:00:13.398Z,92.10
2018-11-26T04:02:41.586Z,92.20
2018-11-26T04:05:10.819Z,92.10
2018-11-26T04:07:39.162Z,92.20
2018-11-26T04:10:09.844Z,92.60
2018-11-26T04:12:37.978Z,92.50
2018-11-26T04:15:08.904Z,92.50
2018-11-26T04:17:37.118Z,91.90
2018-11-26T04:20:05.814Z,91.80
2018-11-26T04:22:34.430Z,91.90
2018-11-26T04:25:03.328Z,91.80
2018-11-26T04:27:31.558Z,91.90
2018-11-26T04:29:59.784Z,92.20
2018-11-26T04:32:27.996Z,92.00
2018-11-26T04:34:56.225Z,91.70
2018-11-26T04:37:24.489Z,91.80
2018-11-26T04:39:52.615Z,92.00
2018-11-26T04:42:20.828Z,92.20
2018-11-26T04:44:48.998Z,92.00
2018-11-26T04:47:17.506Z,92.00
2018-11-26T04:49:45.636Z,92.10
2018-11-26T04:52:13.836Z,91.90
2018-11-26T04:54:42.783Z,91.60
2018-11-26T04:57:11.002Z,91.60
2018-11-26T04:59:39.653Z,91.70
2018-11-26T05:02:07.796Z,91.50
2018-11-26T05:04:36.225Z,91.60
2018-11-26T05:07:04.543Z,91.60
2018-11-26T05:09:33.116Z,91.60
2018-11-26T05:12:01.312Z,91.70
2018-11-26T05:14:30.439Z,92.00
2018-11-26T05:16:58.604Z,92.30
2018-11-26T05:19:27.138Z,92.70
2018-11-26T05:21:55.264Z,92.80
2018-11-26T05:24:23.609Z,93.00
2018-11-26T05:26:51.989Z,93.10
2018-11-26T05:29:20.128Z,93.30
2018-11-26T05:31:48.526Z,93.30
2018-11-26T05:34:16.948Z,93.50
2018-11-26T05:36:45.249Z,93.40
2018-11-26T05:39:13.438Z,93.20
2018-11-26T05:41:41.666Z,93.00
2018-11-26T05:44:10.019Z,92.80
2018-11-26T05:46:39.320Z,92.50
2018-11-26T05:49:07.624Z,92.40
2018-11-26T05:51:35.903Z,92.40
2018-11-26T05:54:04.065Z,92.20
2018-11-26T05:56:32.332Z,92.20
2018-11-26T05:59:01.129Z,92.20
2018-11-26T06:01:29.482Z,91.90
2018-11-26T06:03:58.876Z,91.80
2018-11-26T06:06:27.233Z,92.10
2018-11-26T06:08:55.529Z,92.10
2018-11-26T06:11:23.745Z,92.10
2018-11-26T06:13:51.975Z,91.90
2018-11-26T06:16:20.521Z,92.00
2018-11-26T06:18:49.267Z,92.00
2018-11-26T06:21:17.381Z,92.10
2018-11-26T06:23:46.322Z,92.10
2018-11-26T06:26:14.463Z,92.30
2018-11-26T06:28:43.265Z,92.50
2018-11-26T06:31:11.495Z,92.40
2018-11-26T06:33:39.720Z,92.20
2018-11-26T06:36:08.033Z,92.50
2018-11-26T06:38:36.144Z,92.30
2018-11-26T06:41:04.504Z,92.40
2018-11-26T06:43:32.879Z,92.60
2018-11-26T06:46:01.144Z,92.50
2018-11-26T06:48:29.634Z,92.30
2018-11-26T06:50:58.054Z,92.30
2018-11-26T06:53:26.253Z,91.90
2018-11-26T06:55:54.574Z,91.70
2018-11-26T06:58:23.440Z,91.70
2018-11-26T07:00:51.780Z,91.70
2018-11-26T07:03:20.586Z,91.90
2018-11-26T07:05:49.266Z,92.00
2018-11-26T07:08:17.481Z,91.80
2018-11-26T07:10:45.933Z,91.20
2018-11-26T07:13:14.227Z,91.00
2018-11-26T07:15:42.683Z,91.00
2018-11-26T07:18:10.975Z,91.20
2018-11-26T07:20:39.169Z,90.80
2018-11-26T07:23:07.563Z,90.70
2018-11-26T07:25:35.875Z,90.90
2018-11-26T07:28:06.692Z,91.00
2018-11-26T07:30:34.886Z,91.20
2018-11-26T07:33:03.482Z,91.20
2018-11-26T07:35:32.561Z,90.60
2018-11-26T07:38:00.747Z,90.60
2018-11-26T07:40:29.021Z,90.30
2018-11-26T07:43:07.782Z,90.20
2018-11-26T07:45:36.281Z,89.50
2018-11-26T07:48:04.944Z,89.20
2018-11-26T07:50:33.197Z,89.40
2018-11-26T07:53:02.452Z,89.60
2018-11-26T07:55:30.664Z,89.10
2018-11-26T07:58:00.189Z,88.90
2018-11-26T08:00:28.594Z,88.80
2018-11-26T08:02:56.796Z,88.60
2018-11-26T08:05:26.713Z,87.90
2018-11-26T08:07:54.923Z,88.10
2018-11-26T08:10:23.771Z,87.70
2018-11-26T08:12:54.006Z,87.60
2018-11-26T08:15:23.662Z,87.50
2018-11-26T08:17:52.178Z,87.40
2018-11-26T08:20:20.484Z,87.00
2018-11-26T08:22:48.962Z,86.90
2018-11-26T08:25:18.875Z,86.20
2018-11-26T08:27:47.822Z,86.10
2018-11-26T08:30:21.596Z,86.50
2018-11-26T08:32:59.005Z,86.60
2018-11-26T08:35:27.275Z,86.10
2018-11-26T08:38:03.325Z,86.10
2018-11-26T08:40:37.034Z,86.00
2018-11-26T08:43:06.650Z,86.00
2018-11-26T08:45:37.919Z,85.50
2018-11-26T08:48:12.035Z,84.90
2018-11-26T08:50:40.201Z,84.40
2018-11-26T08:53:08.432Z,84.90
2018-11-26T08:55:37.777Z,84.80
2018-11-26T08:58:06.255Z,84.60
2018-11-26T09:00:34.713Z,84.40
2018-11-26T09:03:03.533Z,84.10
2018-11-26T09:05:35.623Z,84.40
2018-11-26T09:08:04.437Z,83.90
2018-11-26T09:10:32.803Z,83.80
2018-11-26T09:13:00.950Z,83.90
2018-11-26T09:15:29.515Z,83.70
2018-11-26T09:17:57.921Z,83.90
2018-11-26T09:20:26.225Z,83.70
2018-11-26T09:22:54.422Z,82.80
2018-11-26T09:25:23.079Z,83.10
2018-11-26T09:27:51.482Z,83.20
2018-11-26T09:30:19.685Z,82.70
2018-11-26T09:32:48.005Z,83.00
2018-11-26T09:35:16.846Z,82.90
2018-11-26T09:37:45.052Z,82.70
2018-11-26T09:40:16.249Z,83.00
2018-11-26T09:42:45.754Z,83.00
2018-11-26T09:45:16.775Z,82.70
2018-11-26T09:47:45.954Z,82.70
2018-11-26T09:50:16.399Z,82.40
2018-11-26T09:52:45.505Z,82.20
2018-11-26T09:55:14.896Z,81.30
2018-11-26T09:57:43.113Z,80.40
2018-11-26T10:00:18.132Z,81.20
2018-11-26T10:02:47.675Z,81.10
2018-11-26T10:05:18.691Z,81.00
2018-11-26T10:07:47.088Z,80.20
2018-11-26T10:10:15.355Z,80.10
2018-11-26T10:12:44.148Z,80.60
2018-11-26T10:15:20.572Z,80.00
2018-11-26T10:17:48.780Z,80.10
2018-11-26T10:20:17.116Z,79.20
2018-11-26T10:22:46.291Z,79.70
2018-11-26T10:25:15.569Z,80.10
2018-11-26T10:27:44.306Z,80.30
2018-11-26T10:30:13.520Z,79.60
2018-11-26T10:32:42.037Z,80.00
2018-11-26T10:35:12.762Z,80.10
2018-11-26T10:37:41.025Z,80.20
2018-11-26T10:40:20.026Z,80.40
2018-11-26T10:42:48.181Z,79.90
2018-11-26T10:45:18.001Z,80.00
2018-11-26T10:47:46.248Z,79.20
2018-11-26T10:50:15.865Z,79.60
2018-11-26T10:52:46.476Z,79.30
2018-11-26T10:55:18.701Z,79.00
2018-11-26T10:57:46.912Z,78.70
2018-11-26T11:00:21.861Z,78.40
2018-11-26T11:02:50.640Z,78.20
2018-11-26T11:05:18.890Z,78.00
2018-11-26T11:07:47.279Z,79.00
2018-11-26T11:10:18.802Z,78.40
2018-11-26T11:12:46.973Z,78.90
2018-11-26T11:15:15.798Z,78.80
2018-11-26T11:17:43.957Z,78.40
2018-11-26T11:20:16.661Z,79.00
2018-11-26T11:22:45.028Z,79.30
2018-11-26T11:25:15.126Z,79.00
2018-11-26T11:27:44.216Z,79.70
2018-11-26T11:30:15.147Z,79.60
2018-11-26T11:32:43.327Z,79.40
2018-11-26T11:35:12.528Z,79.90
2018-11-26T11:37:41.523Z,79.70
2018-11-26T11:40:22.374Z,79.00
2018-11-26T11:42:50.703Z,79.00
2018-11-26T11:45:19.687Z,79.50
2018-11-26T11:47:47.891Z,79.00
2018-11-26T11:50:18.085Z,78.00
2018-11-26T11:52:47.253Z,77.50
2018-11-26T11:55:16.720Z,77.90
2018-11-26T11:57:45.007Z,78.10
2018-11-26T12:00:28.903Z,78.00
2018-11-26T12:02:57.272Z,77.60
2018-11-26T12:05:25.630Z,78.60
2018-11-26T12:07:54.016Z,78.60
2018-11-26T12:10:22.225Z,78.70
2018-11-26T12:12:50.410Z,78.60
2018-11-26T12:15:19.340Z,78.30
2018-11-26T12:17:48.629Z,78.00
2018-11-26T12:20:16.741Z,78.50
2018-11-26T12:22:45.438Z,78.50
2018-11-26T12:25:15.751Z,78.30
2018-11-26T12:27:44.042Z,78.90
2018-11-26T12:30:21.559Z,78.70
2018-11-26T12:32:49.764Z,78.70
2018-11-26T12:35:18.151Z,79.00
2018-11-26T12:37:46.451Z,78.70
2018-11-26T12:40:17.305Z,78.70
2018-11-26T12:42:45.432Z,79.10
2018-11-26T12:45:21.669Z,79.40
2018-11-26T12:47:50.180Z,79.00
2018-11-26T12:50:18.427Z,78.90
2018-11-26T12:52:46.728Z,79.00
2018-11-26T12:55:16.449Z,79.00
2018-11-26T12:57:45.755Z,78.80
2018-11-26T13:00:15.916Z,78.40
2018-11-26T13:02:44.961Z,78.40
2018-11-26T13:05:15.598Z,78.30
2018-11-26T13:07:44.326Z,78.30
2018-11-26T13:10:15.303Z,78.30
2018-11-26T13:12:44.031Z,78.70
2018-11-26T13:15:16.059Z,78.50
2018-11-26T13:17:44.584Z,78.90
2018-11-26T13:20:14.582Z,78.50
2018-11-26T13:22:43.813Z,79.00
2018-11-26T13:25:13.012Z,79.10
2018-11-26T13:27:43.016Z,79.20
2018-11-26T13:30:12.874Z,79.20
2018-11-26T13:32:42.177Z,78.80
2018-11-26T13:35:12.040Z,79.10
2018-11-26T13:37:40.453Z,79.10
2018-11-26T13:40:11.747Z,79.20
2018-11-26T13:42:40.153Z,79.10
2018-11-26T13:45:17.607Z,79.70
2018-11-26T13:47:46.030Z,79.80
2018-11-26T13:50:23.064Z,79.00
2018-11-26T13:52:50.783Z,79.60
2018-11-26T13:55:19.437Z,79.80
2018-11-26T13:57:47.696Z,79.70
2018-11-26T14:00:17.785Z,79.40
2018-11-26T14:02:46.346Z,79.80
2018-11-26T14:05:15.868Z,79.30
2018-11-26T14:07:45.261Z,79.50
2018-11-26T14:10:21.824Z,79.90
2018-11-26T14:12:54.702Z,80.00
2018-11-26T14:15:23.016Z,79.90
2018-11-26T14:17:51.266Z,79.70
2018-11-26T14:20:19.396Z,80.00
2018-11-26T14:22:47.800Z,79.90
2018-11-26T14:25:17.031Z,79.90
2018-11-26T14:27:45.875Z,80.00
2018-11-26T14:30:19.507Z,80.30
2018-11-26T14:32:47.920Z,80.00
2018-11-26T14:35:16.032Z,80.10
2018-11-26T14:37:44.947Z,80.40
2018-11-26T14:40:17.117Z,79.80
2018-11-26T14:42:45.272Z,80.10
2018-11-26T14:45:13.961Z,80.10
2018-11-26T14:47:42.745Z,79.80
2018-11-26T14:50:13.863Z,79.90
2018-11-26T14:52:43.122Z,80.00
2018-11-26T14:55:14.430Z,79.80
2018-11-26T14:57:43.378Z,79.90
2018-11-26T15:00:13.665Z,80.00
2018-11-26T15:02:41.862Z,79.80
2018-11-26T15:05:10.730Z,79.80
2018-11-26T15:07:39.161Z,79.80
2018-11-26T15:16:56.576Z,79.90
2018-11-26T15:19:25.552Z,80.70
2018-11-26T15:21:53.847Z,80.20
2018-11-26T15:24:22.487Z,80.70
2018-11-26T15:26:53.235Z,80.80
2018-11-26T15:29:19.576Z,80.50
2018-11-26T15:31:50.236Z,80.40
2018-11-26T15:34:16.045Z,80.40
2018-11-26T15:36:44.324Z,80.90
2018-11-26T15:39:12.474Z,80.70
2018-11-26T15:41:40.822Z,81.20
2018-11-26T15:44:09.301Z,81.20
2018-11-26T15:46:37.907Z,81.60
2018-11-26T15:49:06.185Z,81.50
2018-11-26T15:51:34.410Z,81.50
2018-11-26T15:54:03.086Z,81.60
2018-11-26T15:56:31.392Z,81.30
2018-11-26T15:59:00.171Z,81.20
2018-11-26T16:01:28.476Z,81.30
2018-11-26T16:03:56.949Z,81.10
2018-11-26T16:06:25.049Z,81.40
2018-11-26T16:08:53.434Z,81.40
2018-11-26T16:11:21.965Z,81.60
2018-11-26T16:13:50.717Z,81.50
2018-11-26T16:16:19.586Z,81.50
2018-11-26T16:18:48.481Z,81.30
2018-11-26T16:21:16.877Z,81.60
2018-11-26T16:23:45.657Z,81.40
2018-11-26T16:26:14.191Z,81.60
2018-11-26T16:28:42.344Z,81.50
2018-11-26T16:31:10.489Z,81.50
2018-11-26T16:33:39.183Z,81.50
2018-11-26T16:36:07.463Z,81.80
2018-11-26T16:38:36.317Z,82.20
2018-11-26T16:41:04.802Z,81.90
2018-11-26T16:43:33.224Z,81.90
2018-11-26T16:46:01.525Z,81.90
2018-11-26T16:48:29.983Z,82.20
2018-11-26T16:50:58.126Z,82.10
2018-11-26T16:53:26.458Z,82.20
2018-11-26T16:55:56.139Z,82.70
2018-11-26T16:58:25.267Z,82.70
2018-11-26T17:00:53.406Z,82.70
2018-11-26T17:03:21.934Z,82.80
2018-11-26T17:05:50.782Z,82.80
2018-11-26T17:08:19.079Z,82.90
2018-11-26T17:10:47.840Z,82.90
2018-11-26T17:13:15.722Z,83.00
2018-11-26T17:15:44.934Z,83.20
2018-11-26T17:18:13.783Z,83.20
2018-11-26T17:20:42.841Z,83.50
2018-11-26T17:23:11.001Z,83.60
2018-11-26T17:25:39.562Z,83.50
2018-11-26T17:28:08.750Z,83.80
2018-11-26T17:30:38.340Z,83.80
2018-11-26T17:33:08.253Z,84.00
2018-11-26T17:35:37.058Z,84.50
2018-11-26T17:38:06.126Z,85.10
2018-11-26T17:40:34.523Z,85.70
2018-11-26T17:43:02.852Z,86.00
2018-11-26T17:45:31.130Z,86.20
2018-11-26T17:48:00.164Z,86.40
2018-11-26T17:50:32.546Z,87.00
2018-11-26T17:53:01.001Z,87.30
2018-11-26T17:55:29.207Z,87.10
2018-11-26T17:57:57.355Z,87.10
2018-11-26T18:00:28.419Z,87.20
2018-11-26T18:02:56.720Z,87.30
2018-11-26T18:05:26.403Z,87.70
2018-11-26T18:08:01.466Z,87.50
2018-11-26T18:10:29.881Z,87.20
2018-11-26T18:12:59.027Z,87.50
2018-11-26T18:15:27.570Z,87.40
2018-11-26T18:17:56.493Z,87.50
2018-11-26T18:20:24.735Z,87.60
2018-11-26T18:22:53.938Z,87.90
2018-11-26T18:25:23.541Z,87.70
2018-11-26T18:27:56.334Z,88.10
2018-11-26T18:30:31.414Z,88.00
2018-11-26T18:32:59.537Z,88.00
2018-11-26T18:35:28.498Z,88.40
2018-11-26T18:37:56.671Z,88.70
2018-11-26T18:40:25.242Z,88.50
2018-11-26T18:42:53.799Z,88.90
2018-11-26T18:45:22.216Z,88.90
2018-11-26T18:47:50.903Z,88.60
2018-11-26T18:50:20.667Z,88.90
2018-11-26T18:52:49.863Z,88.90
2018-11-26T18:55:18.759Z,88.80
2018-11-26T18:57:47.232Z,88.50
2018-11-26T19:00:19.339Z,88.20
2018-11-26T19:02:47.591Z,87.90
2018-11-26T19:05:16.726Z,87.90
2018-11-26T19:07:45.106Z,87.60
2018-11-26T19:10:15.980Z,87.50
2018-11-26T19:12:45.344Z,87.10
2018-11-26T19:15:17.642Z,86.90
2018-11-26T19:17:46.288Z,86.90
2018-11-26T19:20:15.600Z,87.20
2018-11-26T19:22:43.891Z,87.60
2018-11-26T19:25:14.798Z,87.30
2018-11-26T19:27:43.246Z,87.10
2018-11-26T19:30:12.553Z,87.10
2018-11-26T19:32:42.160Z,87.00
2018-11-26T19:35:11.502Z,87.30
2018-11-26T19:37:41.154Z,87.40
2018-11-26T19:40:14.812Z,87.10
2018-11-26T19:42:45.262Z,87.20
2018-11-26T19:45:14.757Z,87.10
2018-11-26T19:47:43.007Z,87.10
2018-11-26T19:50:13.269Z,87.10
2018-11-26T19:52:41.666Z,86.80
2018-11-26T19:55:11.709Z,86.60
2018-11-26T19:57:39.959Z,86.60
2018-11-26T20:00:16.500Z,86.80
2018-11-26T20:02:46.708Z,86.60
2018-11-26T20:05:21.539Z,86.80
2018-11-26T20:07:50.382Z,86.40
2018-11-26T20:10:18.581Z,86.40
2018-11-26T20:12:46.808Z,86.20
2018-11-26T20:15:16.767Z,86.10
2018-11-26T20:17:45.094Z,86.10
2018-11-26T20:20:13.690Z,86.20
2018-11-26T20:22:42.434Z,86.20
2018-11-26T20:25:12.545Z,86.40
2018-11-26T20:27:41.136Z,86.20
2018-11-26T20:30:13.944Z,85.90
2018-11-26T20:32:44.644Z,85.90
2018-11-26T20:35:14.162Z,85.20
2018-11-26T20:37:42.685Z,85.30
2018-11-26T20:40:13.929Z,85.50
2018-11-26T20:42:46.495Z,85.20
2018-11-26T20:45:15.510Z,85.30
2018-11-26T20:47:44.547Z,85.70
2018-11-26T20:50:18.631Z,85.50
2018-11-26T20:52:47.027Z,85.60
2018-11-26T20:55:17.784Z,85.50
2018-11-26T20:57:46.679Z,85.40
2018-11-26T21:00:18.898Z,85.70
2018-11-26T21:02:48.781Z,85.80
2018-11-26T21:05:18.152Z,85.40
2018-11-26T21:07:46.803Z,85.60
2018-11-26T21:10:15.779Z,85.70
2018-11-26T21:12:44.025Z,85.80
2018-11-26T21:15:15.741Z,85.70
2018-11-26T21:17:46.575Z,85.60
2018-11-26T21:20:19.418Z,85.80
2018-11-26T21:22:47.860Z,85.80
2018-11-26T21:25:16.762Z,85.80
2018-11-26T21:27:44.981Z,85.80
2018-11-26T21:30:15.777Z,85.80
2018-11-26T21:32:43.911Z,86.00
2018-11-26T21:35:13.250Z,85.90
2018-11-26T21:37:42.656Z,86.00
2018-11-26T21:40:12.659Z,85.90
2018-11-26T21:42:41.123Z,85.80
2018-11-26T21:45:11.825Z,86.20
2018-11-26T21:47:40.096Z,86.40
2018-11-26T21:50:14.540Z,86.40
2018-11-26T21:52:43.125Z,86.50
2018-11-26T21:55:13.169Z,86.40
2018-11-26T21:57:44.015Z,86.30
2018-11-26T22:00:15.178Z,86.30
2018-11-26T22:02:43.705Z,86.00
2018-11-26T22:05:12.203Z,86.10
2018-11-26T22:07:40.675Z,86.30
2018-11-26T22:10:11.591Z,86.20
2018-11-26T22:12:39.800Z,86.30
2018-11-26T22:15:11.266Z,86.10
2018-11-26T22:17:40.177Z,86.10
2018-11-26T22:20:10.513Z,86.20
2018-11-26T22:22:38.832Z,86.40
2018-11-26T22:25:08.628Z,86.50
2018-11-26T22:27:38.588Z,86.60
2018-11-26T22:30:17.418Z,86.50
2018-11-26T22:32:45.825Z,86.20
2018-11-26T22:35:14.186Z,86.20
2018-11-26T22:37:42.473Z,86.10
2018-11-26T22:40:15.631Z,86.20
2018-11-26T22:42:44.000Z,86.10
2018-11-26T22:45:17.577Z,85.80
2018-11-26T22:47:47.605Z,85.90
2018-11-26T22:50:15.943Z,86.30
2018-11-26T22:52:44.466Z,85.90
2018-11-26T22:55:14.167Z,86.00
2018-11-26T22:57:43.161Z,85.90
2018-11-26T23:00:24.087Z,85.90
2018-11-26T23:02:53.778Z,85.80
2018-11-26T23:05:22.173Z,85.80
2018-11-26T23:07:50.519Z,85.40
2018-11-26T23:10:18.875Z,85.30
2018-11-26T23:12:47.243Z,85.30
2018-11-26T23:15:16.096Z,85.40
2018-11-26T23:17:45.338Z,85.20
2018-11-26T23:20:15.776Z,85.50
2018-11-26T23:22:44.277Z,85.20
2018-11-26T23:25:14.291Z,85.60
2018-11-26T23:27:42.500Z,85.40
2018-11-26T23:30:27.741Z,85.20
2018-11-26T23:33:01.271Z,85.10
2018-11-26T23:35:29.715Z,84.90
2018-11-26T23:37:57.935Z,85.30
2018-11-26T23:40:26.471Z,85.20
2018-11-26T23:42:54.649Z,85.20
2018-11-26T23:45:25.863Z,85.00
2018-11-26T23:47:54.229Z,85.10
2018-11-26T23:50:22.544Z,85.00
2018-11-26T23:52:51.782Z,84.80
2018-11-26T23:55:21.175Z,84.50
2018-11-26T23:57:50.190Z,85.10
